createdAt,value
2018-06-05T05:01:28.155Z,20.64
2018-06-05T05:06:31.463Z,20.50
2018-06-05T05:11:34.859Z,20.81
2018-06-05T05:16:38.184Z,20.93
2018-06-05T05:21:41.626Z,20.99
2018-06-05T05:26:45.683Z,20.97
2018-06-05T05:31:49.186Z,21.00
2018-06-05T05:36:53.514Z,20.92
2018-06-05T05:41:57.563Z,21.09
2018-06-05T05:47:00.901Z,20.89
2018-06-05T05:52:04.911Z,21.10
2018-06-05T05:57:09.196Z,20.94
2018-06-05T06:02:12.442Z,21.04
2018-06-05T06:07:15.731Z,21.24
2018-06-05T06:12:19.787Z,21.46
2018-06-05T06:17:23.072Z,21.33
2018-06-05T06:22:27.126Z,21.58
2018-06-05T06:27:30.403Z,21.40
2018-06-05T06:32:33.695Z,21.67
2018-06-05T06:37:36.982Z,22.06
2018-06-05T06:42:40.292Z,22.28
2018-06-05T06:47:43.591Z,22.13
2018-06-05T06:52:46.870Z,22.04
2018-06-05T06:57:50.932Z,22.08
2018-06-05T07:02:54.211Z,22.37
2018-06-05T07:07:57.508Z,22.40
2018-06-05T07:13:00.778Z,22.58
2018-06-05T07:18:04.061Z,22.83
2018-06-05T07:23:08.115Z,22.85
2018-06-05T07:28:11.400Z,23.06
2018-06-05T07:33:15.452Z,22.99
2018-06-05T07:38:18.736Z,23.11
2018-06-05T07:43:22.022Z,23.43
2018-06-05T07:48:25.322Z,23.35
2018-06-05T07:53:28.775Z,23.20
2018-06-05T07:58:32.599Z,23.44
2018-06-05T08:03:36.659Z,23.38
2018-06-05T08:08:39.941Z,23.72
2018-06-05T08:13:44.008Z,23.62
2018-06-05T08:18:47.314Z,23.82
2018-06-05T08:23:50.594Z,23.63
2018-06-05T08:28:53.919Z,23.82
2018-06-05T08:33:57.429Z,24.17
2018-06-05T08:39:00.711Z,24.38
2018-06-05T08:44:03.991Z,24.56
2018-06-05T08:49:07.263Z,24.59
2018-06-05T08:54:10.568Z,24.78
2018-06-05T08:59:14.604Z,24.50
2018-06-05T09:04:18.655Z,24.77
2018-06-05T09:09:21.936Z,24.47
2018-06-05T09:14:25.215Z,24.90
2018-06-05T09:19:28.533Z,25.17
2018-06-05T09:24:31.855Z,25.02
2018-06-05T09:29:35.140Z,24.87
2018-06-05T09:34:38.446Z,24.94
2018-06-05T09:39:41.748Z,24.78
2018-06-05T09:44:45.230Z,25.09
2018-06-05T09:49:49.279Z,25.29
2018-06-05T09:54:52.767Z,25.28
2018-06-05T09:59:56.936Z,25.33
2018-06-05T10:05:00.215Z,25.73
2018-06-05T10:10:04.340Z,26.12
2018-06-05T10:15:08.399Z,26.17
2018-06-05T10:20:11.674Z,26.26
2018-06-05T10:25:15.727Z,26.06
2018-06-05T10:30:19.524Z,25.89
2018-06-05T10:35:22.806Z,26.12
2018-06-05T10:40:26.091Z,26.46
2018-06-05T10:45:29.893Z,26.73
2018-06-05T10:50:33.194Z,26.77
2018-06-05T10:55:37.234Z,26.97
2018-06-05T11:00:40.527Z,27.08
2018-06-05T11:05:44.604Z,27.29
2018-06-05T11:10:48.078Z,27.40
2018-06-05T11:15:52.139Z,27.38
2018-06-05T11:20:55.422Z,27.47
2018-06-05T11:25:59.859Z,27.28
2018-06-05T11:31:03.931Z,27.34
2018-06-05T11:36:07.244Z,27.48
2018-06-05T11:41:10.718Z,27.61
2018-06-05T11:46:14.791Z,27.66
2018-06-05T11:51:18.084Z,28.31
2018-06-05T11:56:21.376Z,28.82
2018-06-05T12:01:25.424Z,29.25
2018-06-05T12:06:28.707Z,29.49
2018-06-05T12:11:32.756Z,29.64
2018-06-05T12:16:36.358Z,29.57
2018-06-05T12:21:40.692Z,29.86
2018-06-05T12:26:44.753Z,29.56
2018-06-05T12:31:48.052Z,29.78
2018-06-05T12:36:51.360Z,29.62
2018-06-05T12:41:54.671Z,30.14
2018-06-05T12:46:58.180Z,30.06
2018-06-05T12:52:02.218Z,30.06
2018-06-05T12:57:05.503Z,29.57
2018-06-05T13:02:08.786Z,30.13
2018-06-05T13:07:12.068Z,30.31
2018-06-05T13:12:15.559Z,29.34
2018-06-05T13:17:19.023Z,30.23
2018-06-05T13:22:23.202Z,30.78
2018-06-05T13:27:27.246Z,30.93
2018-06-05T13:32:30.752Z,31.22
2018-06-05T13:37:34.093Z,31.66
2018-06-05T13:42:37.328Z,32.10
2018-06-05T13:47:40.621Z,32.53
2018-06-05T13:52:43.908Z,31.03
2018-06-05T13:57:47.192Z,31.84
2018-06-05T14:02:51.238Z,32.68
2018-06-05T14:07:55.291Z,32.35
2018-06-05T14:12:58.571Z,31.72
2018-06-05T14:18:02.627Z,32.18
2018-06-05T14:23:05.907Z,31.11
2018-06-05T14:28:09.958Z,31.36
2018-06-05T14:33:14.007Z,32.68
2018-06-05T14:38:17.297Z,33.51
2018-06-05T14:43:20.583Z,34.24
2018-06-05T14:48:23.868Z,34.83
2018-06-05T14:53:27.150Z,33.82
2018-06-05T14:58:30.451Z,34.71
2018-06-05T15:03:33.724Z,35.51
2018-06-05T15:08:37.776Z,35.51
2018-06-05T15:13:41.832Z,33.98
2018-06-05T15:18:45.114Z,35.43
2018-06-05T15:23:49.161Z,35.38
2018-06-05T15:28:52.457Z,35.62
2018-06-05T15:33:55.746Z,34.36
2018-06-05T15:38:59.022Z,34.97
2018-06-05T15:44:02.307Z,34.87
2018-06-05T15:49:05.593Z,33.81
2018-06-05T15:54:09.640Z,33.96
2018-06-05T15:59:12.914Z,34.74
2018-06-05T16:04:16.219Z,35.32
2018-06-05T16:09:19.564Z,36.70
2018-06-05T16:14:22.842Z,36.77
2018-06-05T16:19:26.134Z,35.65
2018-06-05T16:24:29.455Z,36.39
2018-06-05T16:29:32.752Z,36.32
2018-06-05T16:34:36.232Z,36.48
2018-06-05T16:39:39.531Z,36.64
2018-06-05T16:44:43.832Z,35.09
2018-06-05T16:49:47.150Z,33.86
2018-06-05T16:54:50.446Z,33.97
2018-06-05T16:59:53.771Z,34.96
2018-06-05T17:04:57.069Z,35.47
2018-06-05T17:10:00.638Z,35.11
2018-06-05T17:15:04.711Z,35.59
2018-06-05T17:20:08.183Z,35.57
2018-06-05T17:25:12.228Z,34.66
2018-06-05T17:30:15.539Z,34.23
2018-06-05T17:35:18.845Z,34.44
2018-06-05T17:40:46.491Z,34.90
2018-06-05T17:45:49.972Z,35.26
2018-06-05T17:50:53.256Z,35.49
2018-06-05T17:55:56.567Z,35.18
2018-06-05T18:00:59.857Z,34.58
2018-06-05T18:06:04.070Z,34.64
2018-06-05T18:11:07.380Z,34.70
2018-06-05T18:16:10.683Z,34.53
2018-06-05T18:21:14.173Z,34.06
2018-06-05T18:26:18.212Z,33.80
2018-06-05T18:31:21.693Z,33.63
2018-06-05T18:36:25.744Z,33.57
2018-06-05T18:41:29.436Z,33.26
2018-06-05T18:46:33.489Z,32.81
2018-06-05T18:51:36.800Z,32.62
2018-06-05T18:56:40.098Z,32.34
2018-06-05T19:01:43.402Z,31.96
2018-06-05T19:06:47.475Z,31.62
2018-06-05T19:11:51.253Z,31.36
2018-06-05T19:16:55.298Z,31.22
2018-06-05T19:21:58.593Z,31.10
2018-06-05T19:27:02.640Z,30.98
2018-06-05T19:32:05.926Z,30.82
2018-06-05T19:37:09.988Z,30.64
2018-06-05T19:42:13.303Z,30.65
2018-06-05T19:47:16.604Z,30.47
2018-06-05T19:52:19.875Z,30.38
2018-06-05T19:57:23.188Z,30.22
2018-06-05T20:02:26.512Z,30.11
2018-06-05T20:07:30.725Z,29.96
2018-06-05T20:12:35.037Z,29.77
2018-06-05T20:17:38.558Z,29.54
2018-06-05T20:22:41.868Z,29.34
2018-06-05T20:27:45.167Z,29.20
2018-06-05T20:32:48.455Z,29.00
2018-06-05T20:37:51.740Z,28.82
2018-06-05T20:42:55.842Z,28.69
2018-06-05T20:47:59.105Z,28.56
2018-06-05T20:53:02.520Z,28.44
2018-06-05T20:58:06.846Z,28.32
2018-06-05T21:03:10.265Z,28.22
2018-06-05T21:08:14.596Z,28.10
2018-06-05T21:13:18.818Z,27.91
2018-06-05T21:18:22.875Z,27.68
2018-06-05T21:23:26.292Z,27.51
2018-06-05T21:28:29.796Z,27.35
2018-06-05T21:33:33.870Z,27.18
2018-06-05T21:38:37.179Z,27.06
2018-06-05T21:43:40.892Z,26.90
2018-06-05T21:48:44.172Z,26.91
2018-06-05T21:53:47.487Z,26.88
2018-06-05T21:58:51.532Z,26.64
2018-06-05T22:03:54.820Z,26.34
2018-06-05T22:08:58.099Z,26.19
2018-06-05T22:14:01.407Z,26.15
2018-06-05T22:19:04.720Z,26.02
2018-06-05T22:24:07.999Z,25.93
2018-06-05T22:29:23.659Z,25.82
